createdAt,value
2018-09-01T00:01:05.551Z,95336.08
2018-09-01T00:03:32.316Z,95348.75
2018-09-01T00:05:59.005Z,95341.40
2018-09-01T00:08:25.683Z,95342.04
2018-09-01T00:10:52.380Z,95339.73
2018-09-01T00:13:20.425Z,95346.92
2018-09-01T00:15:45.666Z,95347.67
2018-09-01T00:18:12.457Z,95358.02
2018-09-01T00:20:39.072Z,95347.67
2018-09-01T00:23:05.730Z,95350.84
2018-09-01T00:25:34.486Z,95355.29
2018-09-01T00:27:59.150Z,95355.69
2018-09-01T00:30:25.859Z,95358.20
2018-09-01T00:32:52.517Z,95355.93
2018-09-01T00:35:19.276Z,95356.97
2018-09-01T00:37:46.029Z,95352.64
2018-09-01T00:40:12.684Z,95357.67
2018-09-01T00:42:40.415Z,95356.33
2018-09-01T00:45:07.069Z,95350.84
2018-09-01T00:47:33.749Z,95355.52
2018-09-01T00:50:00.499Z,95357.06
2018-09-01T00:52:27.124Z,95352.90
2018-09-01T00:54:53.772Z,95353.74
2018-09-01T00:57:20.437Z,95359.81
2018-09-01T00:59:50.451Z,95356.16
2018-09-01T01:02:17.121Z,95358.48
2018-09-01T01:04:43.771Z,95359.58
2018-09-01T01:07:10.548Z,95360.19
2018-09-01T01:09:37.290Z,95354.88
2018-09-01T01:12:03.990Z,95363.12
2018-09-01T01:14:30.607Z,95359.12
2018-09-01T01:16:57.314Z,95363.23
2018-09-01T01:19:23.972Z,95363.23
2018-09-01T01:21:50.626Z,95359.81
2018-09-01T01:24:17.322Z,95358.81
2018-09-01T01:26:45.166Z,95363.81
2018-09-01T01:29:10.689Z,95360.83
2018-09-01T01:31:37.440Z,95356.95
2018-09-01T01:34:04.065Z,95350.03
2018-09-01T01:36:30.749Z,95361.41
2018-09-01T01:38:57.428Z,95361.92
2018-09-01T01:41:26.219Z,95353.17
2018-09-01T01:43:50.888Z,95358.41
2018-09-01T01:46:17.522Z,95353.98
2018-09-01T01:48:44.231Z,95349.66
2018-09-01T01:51:10.932Z,95354.42
2018-09-01T01:53:37.584Z,95354.37
2018-09-01T01:56:04.269Z,95350.38
2018-09-01T01:58:30.984Z,95347.91
2018-09-01T02:00:57.654Z,95353.34
2018-09-01T02:03:24.469Z,95345.98
2018-09-01T02:05:51.130Z,95354.56
2018-09-01T02:08:17.802Z,95349.84
2018-09-01T02:10:44.467Z,95357.14
2018-09-01T02:13:11.141Z,95355.95
2018-09-01T02:15:37.797Z,95356.77
2018-09-01T02:18:04.474Z,95356.88
2018-09-01T02:20:31.133Z,95353.10
2018-09-01T02:22:57.887Z,95348.39
2018-09-01T02:25:24.633Z,95351.70
2018-09-01T02:27:51.288Z,95357.59
2018-09-01T02:30:18.037Z,95353.20
2018-09-01T02:32:44.713Z,95349.28
2018-09-01T02:35:11.404Z,95356.58
2018-09-01T02:37:38.078Z,95348.39
2018-09-01T02:40:06.162Z,95351.64
2018-09-01T02:42:31.433Z,95350.84
2018-09-01T02:44:58.129Z,95348.06
2018-09-01T02:47:24.839Z,95343.37
2018-09-01T02:49:51.600Z,95339.08
2018-09-01T02:52:18.261Z,95344.77
2018-09-01T02:54:44.919Z,95345.41
2018-09-01T02:57:11.593Z,95343.76
2018-09-01T02:59:38.280Z,95348.95
2018-09-01T03:02:04.932Z,95352.64
2018-09-01T03:04:31.698Z,95347.23
2018-09-01T03:07:00.994Z,95348.25
2018-09-01T03:09:27.668Z,95345.84
2018-09-01T03:11:54.331Z,95347.36
2018-09-01T03:14:21.051Z,95349.79
2018-09-01T03:16:47.839Z,95349.58
2018-09-01T03:19:14.470Z,95353.25
2018-09-01T03:21:41.218Z,95351.99
2018-09-01T03:24:07.883Z,95359.13
2018-09-01T03:26:34.554Z,95356.98
2018-09-01T03:29:01.213Z,95353.31
2018-09-01T03:31:27.920Z,95353.31
2018-09-01T03:33:54.576Z,95363.08
2018-09-01T03:36:21.272Z,95366.50
2018-09-01T03:38:47.934Z,95360.67
2018-09-01T03:41:14.636Z,95369.16
2018-09-01T03:43:41.265Z,95375.03
2018-09-01T03:46:13.169Z,95374.77
2018-09-01T03:48:37.402Z,95380.68
2018-09-01T03:51:04.100Z,95380.42
2018-09-01T03:53:30.888Z,95383.89
2018-09-01T03:55:57.572Z,95388.66
2018-09-01T03:58:24.228Z,95387.02
2018-09-01T04:00:50.898Z,95390.56
2018-09-01T04:03:17.560Z,95387.08
2018-09-01T04:05:44.225Z,95386.69
2018-09-01T04:08:10.880Z,95395.63
2018-09-01T04:10:37.619Z,95397.78
2018-09-01T04:13:04.257Z,95402.82
2018-09-01T04:15:30.910Z,95394.05
2018-09-01T04:17:57.566Z,95398.80
2018-09-01T04:20:26.707Z,95397.86
2018-09-01T04:22:54.693Z,95397.39
2018-09-01T04:25:23.259Z,95401.90
2018-09-01T04:27:49.942Z,95395.50
2018-09-01T04:30:16.617Z,95403.77
2018-09-01T04:32:43.323Z,95401.45
2018-09-01T04:35:09.950Z,95403.67
2018-09-01T04:37:36.605Z,95402.23
2018-09-01T04:40:03.243Z,95399.09
2018-09-01T04:42:30.419Z,95407.78
2018-09-01T04:44:57.052Z,95398.52
2018-09-01T04:47:23.821Z,95399.10
2018-09-01T04:49:50.497Z,95394.45
2018-09-01T04:52:17.154Z,95395.09
2018-09-01T04:54:43.905Z,95394.59
2018-09-01T04:57:10.576Z,95387.19
2018-09-01T04:59:37.224Z,95391.30
2018-09-01T05:02:03.951Z,95399.93
2018-09-01T05:04:30.689Z,95392.19
2018-09-01T05:06:57.331Z,95392.09
2018-09-01T05:09:24.019Z,95393.12
2018-09-01T05:11:50.660Z,95385.71
2018-09-01T05:14:17.295Z,95382.40
2018-09-01T05:16:43.947Z,95382.17
2018-09-01T05:19:11.723Z,95382.38
2018-09-01T05:21:37.359Z,95378.23
2018-09-01T05:24:04.077Z,95378.17
2018-09-01T05:26:30.656Z,95381.11
2018-09-01T05:28:57.301Z,95382.16
2018-09-01T05:31:24.029Z,95378.99
2018-09-01T05:33:50.693Z,95381.23
2018-09-01T05:36:17.361Z,95383.65
2018-09-01T05:38:44.036Z,95379.42
2018-09-01T05:41:10.671Z,95381.20
2018-09-01T05:43:37.430Z,95382.92
2018-09-01T05:46:04.036Z,95382.69
2018-09-01T05:48:30.730Z,95384.69
2018-09-01T05:50:57.400Z,95384.14
2018-09-01T05:53:24.051Z,95384.20
2018-09-01T05:55:50.703Z,95378.84
2018-09-01T05:58:17.356Z,95381.31
2018-09-01T06:00:44.022Z,95383.17
2018-09-01T06:03:13.656Z,95387.11
2018-09-01T06:05:40.329Z,95386.61
2018-09-01T06:08:07.029Z,95377.28
2018-09-01T06:10:33.701Z,95381.96
2018-09-01T06:13:00.387Z,95386.34
2018-09-01T06:15:27.039Z,95388.23
2018-09-01T06:17:54.854Z,95390.02
2018-09-01T06:20:21.521Z,95394.14
2018-09-01T06:22:51.644Z,95387.16
2018-09-01T06:25:18.327Z,95397.11
2018-09-01T06:27:45.074Z,95389.05
2018-09-01T06:30:11.851Z,95392.09
2018-09-01T06:32:38.491Z,95390.96
2018-09-01T06:35:08.055Z,95390.39
2018-09-01T06:37:34.867Z,95391.28
2018-09-01T06:40:01.451Z,95391.78
2018-09-01T06:42:28.210Z,95394.89
2018-09-01T06:44:54.909Z,95392.30
2018-09-01T06:47:21.553Z,95401.38
2018-09-01T06:49:48.192Z,95400.69
2018-09-01T06:52:14.923Z,95399.41
2018-09-01T06:54:41.662Z,95404.13
2018-09-01T06:57:11.717Z,95401.19
2018-09-01T06:59:38.361Z,95399.61
2018-09-01T07:02:07.998Z,95400.85
2018-09-01T07:04:37.614Z,95399.08
2018-09-01T07:07:04.247Z,95403.27
2018-09-01T07:09:30.913Z,95400.61
2018-09-01T07:11:57.652Z,95404.42
2018-09-01T07:14:24.343Z,95407.48
2018-09-01T07:16:51.002Z,95410.16
2018-09-01T07:19:17.698Z,95408.87
2018-09-01T07:21:44.341Z,95408.94
2018-09-01T07:24:11.150Z,95408.42
2018-09-01T07:26:37.822Z,95408.86
2018-09-01T07:29:05.395Z,95409.73
2018-09-01T07:31:32.423Z,95407.58
2018-09-01T07:34:01.807Z,95405.09
2018-09-01T07:36:28.488Z,95404.86
2018-09-01T07:38:55.136Z,95400.25
2018-09-01T07:41:21.874Z,95399.25
2018-09-01T07:43:48.612Z,95397.34
2018-09-01T07:46:15.330Z,95392.11
2018-09-01T07:48:41.987Z,95397.77
2018-09-01T07:51:11.390Z,95399.89
2018-09-01T07:53:36.381Z,95399.47
2018-09-01T07:56:03.090Z,95396.06
2018-09-01T07:58:29.804Z,95399.75
2018-09-01T08:00:56.529Z,95391.94
2018-09-01T08:03:23.267Z,95393.70
2018-09-01T08:05:49.884Z,95388.73
2018-09-01T08:08:16.663Z,95384.78
2018-09-01T08:10:46.677Z,95391.84
2018-09-01T08:13:13.547Z,95387.19
2018-09-01T08:15:40.196Z,95384.39
2018-09-01T08:18:06.844Z,95379.78
2018-09-01T08:20:33.512Z,95380.33
2018-09-01T08:23:00.166Z,95386.89
2018-09-01T08:25:27.711Z,95381.32
2018-09-01T08:27:54.377Z,95383.72
2018-09-01T08:30:24.338Z,95375.13
2018-09-01T08:32:50.966Z,95370.88
2018-09-01T08:35:19.573Z,95368.30
2018-09-01T08:37:46.262Z,95369.22
2018-09-01T08:40:10.991Z,95365.36
2018-09-01T08:42:37.673Z,95373.89
2018-09-01T08:45:04.368Z,95367.53
2018-09-01T08:47:31.008Z,95368.58
2018-09-01T08:49:57.637Z,95368.52
2018-09-01T08:52:24.328Z,95366.86
2018-09-01T08:54:51.067Z,95369.44
2018-09-01T08:57:17.752Z,95370.89
2018-09-01T08:59:44.398Z,95361.38
2018-09-01T09:02:11.078Z,95360.41
2018-09-01T09:04:37.727Z,95355.38
2018-09-01T09:07:04.413Z,95356.92
2018-09-01T09:09:31.105Z,95358.20
2018-09-01T09:11:57.743Z,95357.94
2018-09-01T09:14:24.441Z,95358.72
2018-09-01T09:16:51.181Z,95356.37
2018-09-01T09:19:17.838Z,95349.56
2018-09-01T09:21:44.474Z,95355.52
2018-09-01T09:24:11.170Z,95349.44
2018-09-01T09:26:37.814Z,95358.43
2018-09-01T09:29:04.508Z,95352.84
2018-09-01T09:31:31.146Z,95355.82
2018-09-01T09:33:58.178Z,95352.45
2018-09-01T09:36:24.871Z,95362.28
2018-09-01T09:38:51.522Z,95355.06
2018-09-01T09:41:18.160Z,95354.63
2018-09-01T09:43:44.988Z,95353.67
2018-09-01T09:46:11.624Z,95350.55
2018-09-01T09:48:38.258Z,95349.31
2018-09-01T09:51:04.897Z,95349.10
2018-09-01T09:53:31.564Z,95354.36
2018-09-01T09:55:58.274Z,95352.08
2018-09-01T09:58:25.020Z,95350.44
2018-09-01T10:00:51.654Z,95349.02
2018-09-01T10:03:18.318Z,95351.70
2018-09-01T10:05:47.449Z,95350.53
2018-09-01T10:08:13.948Z,95349.84
2018-09-01T10:10:40.694Z,95351.62
2018-09-01T10:13:08.635Z,95347.62
2018-09-01T10:15:35.324Z,95345.13
2018-09-01T10:18:00.628Z,95349.28
2018-09-01T10:20:27.503Z,95342.42
2018-09-01T10:22:54.118Z,95345.98
2018-09-01T10:25:23.443Z,95337.28
2018-09-01T10:27:50.153Z,95335.64
2018-09-01T10:30:16.794Z,95339.38
2018-09-01T10:32:43.442Z,95331.68
2018-09-01T10:35:10.146Z,95332.38
2018-09-01T10:37:36.803Z,95323.25
2018-09-01T10:40:05.568Z,95324.64
2018-09-01T10:42:32.288Z,95324.94
2018-09-01T10:44:58.937Z,95322.17
2018-09-01T10:47:25.574Z,95324.20
2018-09-01T10:49:52.215Z,95322.84
2018-09-01T10:52:18.958Z,95314.85
2018-09-01T10:54:45.695Z,95319.13
2018-09-01T10:57:12.342Z,95306.95
2018-09-01T10:59:42.200Z,95303.14
2018-09-01T11:02:08.746Z,95308.14
2018-09-01T11:04:35.447Z,95306.94
2018-09-01T11:07:02.086Z,95306.63
2018-09-01T11:09:28.826Z,95300.22
2018-09-01T11:11:55.463Z,95302.42
2018-09-01T11:14:22.236Z,95305.67
2018-09-01T11:16:48.851Z,95304.47
2018-09-01T11:19:15.490Z,95306.94
2018-09-01T11:21:42.172Z,95309.92
2018-09-01T11:24:08.840Z,95304.07
2018-09-01T11:26:35.508Z,95308.92
2018-09-01T11:29:02.185Z,95311.95
2018-09-01T11:31:28.855Z,95310.67
2018-09-01T11:33:55.552Z,95306.55
2018-09-01T11:36:22.203Z,95303.33
2018-09-01T11:38:48.940Z,95305.17
2018-09-01T11:41:15.552Z,95297.70
2018-09-01T11:43:42.192Z,95296.95
2018-09-01T11:46:08.934Z,95299.41
2018-09-01T11:48:35.614Z,95295.83
2018-09-01T11:51:02.256Z,95284.16
2018-09-01T11:53:28.992Z,95283.42
2018-09-01T11:55:55.630Z,95280.06
2018-09-01T11:58:22.288Z,95287.03
2018-09-01T12:00:49.061Z,95282.22
2018-09-01T12:03:15.708Z,95276.19
2018-09-01T12:05:42.342Z,95274.38
2018-09-01T12:08:08.999Z,95272.26
2018-09-01T12:10:35.665Z,95276.58
2018-09-01T12:13:02.277Z,95263.77
2018-09-01T12:15:28.926Z,95262.63
2018-09-01T12:17:55.613Z,95257.38
2018-09-01T12:20:23.625Z,95267.08
2018-09-01T12:22:48.910Z,95265.59
2018-09-01T12:25:15.551Z,95264.45
2018-09-01T12:27:42.323Z,95267.72
2018-09-01T12:30:09.092Z,95263.38
2018-09-01T12:32:35.706Z,95262.23
2018-09-01T12:35:02.386Z,95262.36
2018-09-01T12:37:29.022Z,95256.16
2018-09-01T12:39:58.238Z,95257.89
2018-09-01T12:42:24.845Z,95265.56
2018-09-01T12:44:51.537Z,95259.15
2018-09-01T12:47:18.182Z,95263.59
2018-09-01T12:49:44.822Z,95264.78
2018-09-01T12:52:11.560Z,95258.77
2018-09-01T12:54:38.265Z,95255.45
2018-09-01T12:57:04.837Z,95259.44
2018-09-01T12:59:31.487Z,95255.72
2018-09-01T13:01:58.152Z,95256.62
2018-09-01T13:04:24.849Z,95256.94
2018-09-01T13:06:51.491Z,95251.33
2018-09-01T13:09:18.142Z,95253.13
2018-09-01T13:11:44.895Z,95251.91
2018-09-01T13:14:11.517Z,95247.02
2018-09-01T13:16:38.205Z,95247.09
2018-09-01T13:19:04.912Z,95243.63
2018-09-01T13:21:34.540Z,95241.50
2018-09-01T13:24:01.198Z,95242.64
2018-09-01T13:26:27.833Z,95237.06
2018-09-01T13:28:54.487Z,95242.96
2018-09-01T13:31:21.137Z,95238.34
2018-09-01T13:33:47.776Z,95231.95
2018-09-01T13:36:14.413Z,95237.20
2018-09-01T13:38:41.151Z,95235.55
2018-09-01T13:41:07.842Z,95230.30
2018-09-01T13:43:34.562Z,95232.45
2018-09-01T13:46:01.249Z,95234.54
2018-09-01T13:48:27.840Z,95226.96
2018-09-01T13:50:54.577Z,95226.05
2018-09-01T13:53:21.191Z,95231.11
2018-09-01T13:55:47.895Z,95231.80
2018-09-01T13:58:15.336Z,95221.16
2018-09-01T14:00:41.969Z,95228.03
2018-09-01T14:03:08.618Z,95228.58
2018-09-01T14:05:35.257Z,95227.46
2018-09-01T14:08:01.916Z,95232.41
2018-09-01T14:10:28.569Z,95232.91
2018-09-01T14:12:55.211Z,95235.88
2018-09-01T14:15:21.857Z,95234.69
2018-09-01T14:17:48.568Z,95233.45
2018-09-01T14:20:17.853Z,95234.10
2018-09-01T14:22:48.876Z,95231.42
2018-09-01T14:25:15.530Z,95236.14
2018-09-01T14:27:45.346Z,95233.44
2018-09-01T14:30:12.044Z,95229.22
2018-09-01T14:32:38.785Z,95228.84
2018-09-01T14:35:05.459Z,95229.11
2018-09-01T14:37:32.230Z,95229.48
2018-09-01T14:40:00.235Z,95229.59
2018-09-01T14:42:27.470Z,95227.99
2018-09-01T14:44:52.248Z,95222.93
2018-09-01T14:47:18.960Z,95223.58
2018-09-01T14:49:45.682Z,95227.13
2018-09-01T14:52:13.391Z,95233.34
2018-09-01T14:54:42.926Z,95235.67
2018-09-01T14:57:09.664Z,95233.63
2018-09-01T14:59:36.327Z,95237.06
2018-09-01T15:02:03.015Z,95238.39
2018-09-01T15:04:29.660Z,95232.01
2018-09-01T15:06:56.347Z,95235.05
2018-09-01T15:09:22.985Z,95233.89
2018-09-01T15:11:49.631Z,95231.05
2018-09-01T15:14:16.271Z,95236.22
2018-09-01T15:16:42.923Z,95238.75
2018-09-01T15:19:09.604Z,95232.80
2018-09-01T15:21:36.250Z,95232.23
2018-09-01T15:24:02.895Z,95233.30
2018-09-01T15:26:29.539Z,95232.45
2018-09-01T15:28:56.222Z,95237.97
2018-09-01T15:31:22.919Z,95236.83
2018-09-01T15:33:49.558Z,95240.50
2018-09-01T15:36:16.208Z,95242.98
2018-09-01T15:38:42.861Z,95246.59
2018-09-01T15:41:09.589Z,95238.35
2018-09-01T15:43:36.239Z,95235.95
2018-09-01T15:46:02.904Z,95240.05
2018-09-01T15:48:29.550Z,95240.33
2018-09-01T15:50:56.196Z,95235.96
2018-09-01T15:53:22.863Z,95237.05
2018-09-01T15:55:49.497Z,95243.50
2018-09-01T15:58:16.180Z,95244.47
2018-09-01T16:00:42.817Z,95246.10
2018-09-01T16:03:11.079Z,95243.98
2018-09-01T16:05:36.109Z,95248.58
2018-09-01T16:08:02.745Z,95252.87
2018-09-01T16:10:29.441Z,95249.91
2018-09-01T16:12:56.080Z,95254.41
2018-09-01T16:15:22.751Z,95250.20
2018-09-01T16:17:49.438Z,95251.48
2018-09-01T16:20:16.084Z,95253.80
2018-09-01T16:22:42.747Z,95247.48
2018-09-01T16:25:09.786Z,95252.20
2018-09-01T16:27:36.502Z,95248.83
2018-09-01T16:30:03.137Z,95254.92
2018-09-01T16:32:29.781Z,95248.45
2018-09-01T16:34:56.420Z,95255.25
2018-09-01T16:37:23.057Z,95254.36
2018-09-01T16:39:49.749Z,95256.62
2018-09-01T16:42:16.420Z,95259.30
2018-09-01T16:44:43.062Z,95254.26
2018-09-01T16:47:09.788Z,95261.59
2018-09-01T16:49:36.523Z,95256.59
2018-09-01T16:52:03.285Z,95256.59
2018-09-01T16:54:31.824Z,95262.34
2018-09-01T16:56:56.503Z,95259.47
2018-09-01T16:59:23.243Z,95261.63
2018-09-01T17:01:49.920Z,95260.30
2018-09-01T17:04:20.067Z,95264.95
2018-09-01T17:06:46.677Z,95268.77
2018-09-01T17:09:13.427Z,95271.61
2018-09-01T17:11:40.059Z,95271.36
2018-09-01T17:14:06.693Z,95273.97
2018-09-01T17:16:33.380Z,95271.32
2018-09-01T17:19:00.016Z,95279.62
2018-09-01T17:21:26.701Z,95276.55
2018-09-01T17:23:53.480Z,95286.41
2018-09-01T17:26:20.127Z,95283.02
2018-09-01T17:28:46.824Z,95291.59
2018-09-01T17:31:13.468Z,95291.02
2018-09-01T17:33:40.200Z,95293.31
2018-09-01T17:36:06.933Z,95297.83
2018-09-01T17:38:33.708Z,95297.07
2018-09-01T17:41:00.385Z,95301.36
2018-09-01T17:43:27.110Z,95307.31
2018-09-01T17:45:54.935Z,95311.59
2018-09-01T17:48:20.407Z,95316.42
2018-09-01T17:50:47.066Z,95313.07
2018-09-01T17:53:13.842Z,95316.88
2018-09-01T17:55:40.533Z,95318.39
2018-09-01T17:58:09.423Z,95318.12
2018-09-01T18:00:36.074Z,95321.20
2018-09-01T18:03:02.832Z,95324.17
2018-09-01T18:05:29.506Z,95318.96
2018-09-01T18:07:56.306Z,95320.09
2018-09-01T18:10:22.954Z,95329.42
2018-09-01T18:12:49.669Z,95332.86
2018-09-01T18:15:16.410Z,95332.11
2018-09-01T18:17:43.025Z,95332.60
2018-09-01T18:20:09.753Z,95330.40
2018-09-01T18:22:36.405Z,95336.06
2018-09-01T18:25:03.069Z,95333.38
2018-09-01T18:27:33.140Z,95331.89
2018-09-01T18:29:59.814Z,95343.23
2018-09-01T18:32:26.500Z,95335.41
2018-09-01T18:34:53.155Z,95343.91
2018-09-01T18:37:19.847Z,95343.12
2018-09-01T18:39:46.486Z,95347.08
2018-09-01T18:42:13.190Z,95344.66
2018-09-01T18:44:41.124Z,95342.13
2018-09-01T18:47:06.589Z,95339.52
2018-09-01T18:49:33.284Z,95341.18
2018-09-01T18:52:00.015Z,95347.61
2018-09-01T18:54:26.665Z,95354.77
2018-09-01T18:56:54.610Z,95359.01
2018-09-01T18:59:19.914Z,95352.50
2018-09-01T19:01:46.654Z,95362.62
2018-09-01T19:04:13.354Z,95360.93
2018-09-01T19:06:40.140Z,95364.36
2018-09-01T19:09:06.794Z,95358.41
2018-09-01T19:11:33.450Z,95362.88
2018-09-01T19:14:02.786Z,95360.31
2018-09-01T19:16:29.550Z,95358.95
2018-09-01T19:18:58.936Z,95366.81
2018-09-01T19:21:25.604Z,95368.09
2018-09-01T19:23:52.273Z,95367.77
2018-09-01T19:26:18.954Z,95367.02
2018-09-01T19:28:47.331Z,95363.53
2018-09-01T19:31:12.386Z,95364.86
2018-09-01T19:33:45.318Z,95368.42
2018-09-01T19:36:13.283Z,95360.16
2018-09-01T19:38:38.612Z,95360.74
2018-09-01T19:41:05.359Z,95366.53
2018-09-01T19:43:32.008Z,95357.18
2018-09-01T19:45:58.659Z,95363.09
2018-09-01T19:48:27.676Z,95358.36
2018-09-01T19:50:53.022Z,95359.34
2018-09-01T19:53:19.768Z,95366.47
2018-09-01T19:55:46.599Z,95353.39
2018-09-01T19:58:13.327Z,95361.95
2018-09-01T20:00:40.080Z,95357.58
2018-09-01T20:03:06.824Z,95351.70
2018-09-01T20:05:33.506Z,95355.86
2018-09-01T20:08:00.151Z,95352.73
2018-09-01T20:10:26.788Z,95348.32
2018-09-01T20:12:53.441Z,95355.75
2018-09-01T20:15:20.081Z,95351.77
2018-09-01T20:17:46.845Z,95349.91
2018-09-01T20:20:13.603Z,95352.00
2018-09-01T20:22:40.242Z,95353.66
2018-09-01T20:25:06.925Z,95353.80
2018-09-01T20:27:33.531Z,95354.44
2018-09-01T20:30:00.177Z,95357.16
2018-09-01T20:32:29.423Z,95354.44
2018-09-01T20:34:56.057Z,95353.55
2018-09-01T20:37:22.751Z,95355.64
2018-09-01T20:39:50.832Z,95354.06
2018-09-01T20:42:16.105Z,95355.32
2018-09-01T20:44:42.740Z,95353.43
2018-09-01T20:47:09.393Z,95354.04
2018-09-01T20:49:36.054Z,95354.07
2018-09-01T20:52:02.882Z,95350.11
2018-09-01T20:54:29.460Z,95353.69
2018-09-01T20:56:56.152Z,95355.20
2018-09-01T20:59:22.835Z,95350.44
2018-09-01T21:01:49.473Z,95352.24
2018-09-01T21:04:16.126Z,95354.56
2018-09-01T21:06:42.775Z,95353.05
2018-09-01T21:09:09.419Z,95348.55
2018-09-01T21:11:36.194Z,95352.30
2018-09-01T21:14:02.968Z,95350.64
2018-09-01T21:16:32.800Z,95349.89
2018-09-01T21:18:59.426Z,95347.65
2018-09-01T21:21:26.106Z,95347.65
2018-09-01T21:23:52.755Z,95349.95
2018-09-01T21:26:19.528Z,95349.89
2018-09-01T21:28:46.164Z,95348.66
2018-09-01T21:31:14.195Z,95347.16
2018-09-01T21:33:39.523Z,95343.72
2018-09-01T21:36:06.165Z,95333.69
2018-09-01T21:38:32.864Z,95330.23
2018-09-01T21:41:00.933Z,95334.53
2018-09-01T21:43:27.553Z,95334.53
2018-09-01T21:45:55.095Z,95333.52
2018-09-01T21:48:19.556Z,95334.16
2018-09-01T21:50:46.234Z,95339.05
2018-09-01T21:53:12.918Z,95338.41
2018-09-01T21:55:39.557Z,95334.48
2018-09-01T21:58:06.278Z,95339.69
2018-09-01T22:00:32.972Z,95334.54
2018-09-01T22:02:59.749Z,95334.97
2018-09-01T22:05:26.367Z,95333.98
2018-09-01T22:07:53.087Z,95336.20
2018-09-01T22:10:19.750Z,95341.52
2018-09-01T22:12:46.401Z,95333.03
2018-09-01T22:15:13.039Z,95336.83
2018-09-01T22:17:39.740Z,95340.77
2018-09-01T22:20:06.384Z,95343.93
2018-09-01T22:22:33.020Z,95338.09
2018-09-01T22:24:59.795Z,95336.52
2018-09-01T22:27:26.489Z,95340.18
2018-09-01T22:29:53.210Z,95340.81
2018-09-01T22:32:19.917Z,95335.17
2018-09-01T22:34:46.650Z,95340.53
2018-09-01T22:37:13.282Z,95338.87
2018-09-01T22:39:39.920Z,95346.98
2018-09-01T22:42:06.643Z,95345.64
2018-09-01T22:44:33.362Z,95347.24
2018-09-01T22:47:00.014Z,95341.14
2018-09-01T22:49:26.749Z,95338.87
2018-09-01T22:51:53.486Z,95335.70
2018-09-01T22:54:20.264Z,95343.67
2018-09-01T22:56:46.889Z,95348.26
2018-09-01T22:59:13.530Z,95352.03
2018-09-01T23:01:40.169Z,95348.31
2018-09-01T23:04:08.344Z,95352.13
2018-09-01T23:06:35.256Z,95350.98
2018-09-01T23:09:01.991Z,95351.42
2018-09-01T23:11:28.652Z,95345.14
2018-09-01T23:13:55.303Z,95348.95
2018-09-01T23:16:21.950Z,95347.06
2018-09-01T23:18:48.586Z,95346.19
2018-09-01T23:21:15.234Z,95343.28
2018-09-01T23:23:41.917Z,95341.36
2018-09-01T23:26:11.982Z,95344.21
2018-09-01T23:28:41.511Z,95343.92
2018-09-01T23:31:08.155Z,95352.09
2018-09-01T23:33:34.865Z,95348.80
2018-09-01T23:36:02.743Z,95350.48
2018-09-01T23:38:28.093Z,95352.53
2018-09-01T23:40:54.740Z,95349.44
2018-09-01T23:43:21.385Z,95360.59
2018-09-01T23:45:48.022Z,95358.42
2018-09-01T23:48:14.662Z,95354.62
2018-09-01T23:50:41.296Z,95352.66
2018-09-01T23:53:07.936Z,95357.98
2018-09-01T23:55:34.610Z,95356.21
2018-09-01T23:58:01.209Z,95361.53
